createdAt,value
2022-08-28T00:00:29.327Z,99365.53
2022-08-28T00:02:57.482Z,99366.06
2022-08-28T00:05:26.596Z,99375.59
2022-08-28T00:07:54.643Z,99368.47
2022-08-28T00:10:24.431Z,99371.94
2022-08-28T00:12:53.072Z,99373.28
2022-08-28T00:15:26.743Z,99380.97
2022-08-28T00:17:55.308Z,99378.72
2022-08-28T00:20:23.536Z,99373.75
2022-08-28T00:22:51.618Z,99373.69
2022-08-28T00:25:20.291Z,99373.69
2022-08-28T00:27:54.994Z,99369.25
2022-08-28T00:30:24.346Z,99375.53
2022-08-28T00:32:52.359Z,99378.56
2022-08-28T00:35:20.466Z,99377.72
2022-08-28T00:37:48.571Z,99383.19
2022-08-28T00:40:20.028Z,99379.91
2022-08-28T00:43:00.486Z,99380.72
2022-08-28T00:45:28.877Z,99386.69
2022-08-28T00:47:56.887Z,99376.81
2022-08-28T00:50:28.083Z,99384.94
2022-08-28T00:52:56.912Z,99365.31
2022-08-28T00:55:26.124Z,99383.50
2022-08-28T00:57:55.235Z,99379.34
2022-08-28T01:00:26.619Z,99379.88
2022-08-28T01:02:54.769Z,99383.13
2022-08-28T01:05:22.811Z,99388.84
2022-08-28T01:07:51.061Z,99391.81
2022-08-28T01:10:23.286Z,99379.22
2022-08-28T01:12:51.305Z,99384.19
2022-08-28T01:15:21.390Z,99391.31
2022-08-28T01:17:51.935Z,99391.28
2022-08-28T01:20:22.961Z,99398.31
2022-08-28T01:22:54.080Z,99396.66
2022-08-28T01:25:23.840Z,99395.00
2022-08-28T01:27:51.868Z,99393.88
2022-08-28T01:30:21.772Z,99397.56
2022-08-28T01:32:51.332Z,99395.56
2022-08-28T01:35:20.816Z,99393.25
2022-08-28T01:37:48.858Z,99389.66
2022-08-28T01:40:20.433Z,99393.13
2022-08-28T01:42:50.339Z,99388.97
2022-08-28T01:45:19.483Z,99378.00
2022-08-28T01:47:47.594Z,99387.84
2022-08-28T01:50:20.526Z,99388.34
2022-08-28T01:52:48.536Z,99388.88
2022-08-28T01:55:16.574Z,99382.75
2022-08-28T01:57:53.072Z,99382.94
2022-08-28T02:00:21.512Z,99384.78
2022-08-28T02:02:49.507Z,99388.56
2022-08-28T02:05:18.933Z,99381.47
2022-08-28T02:07:47.077Z,99386.34
2022-08-28T02:10:15.109Z,99387.41
2022-08-28T02:12:43.917Z,99388.00
2022-08-28T02:15:13.303Z,99391.78
2022-08-28T02:17:41.450Z,99382.53
2022-08-28T02:20:11.047Z,99389.56
2022-08-28T02:22:39.082Z,99390.13
2022-08-28T02:25:07.599Z,99395.00
2022-08-28T02:27:35.775Z,99392.03
2022-08-28T02:30:03.844Z,99390.72
2022-08-28T02:32:33.242Z,99383.13
2022-08-28T02:35:01.216Z,99385.31
2022-08-28T02:37:29.291Z,99386.00
2022-08-28T02:39:58.443Z,99385.56
2022-08-28T02:42:26.569Z,99382.72
2022-08-28T02:44:54.608Z,99391.22
2022-08-28T02:47:22.612Z,99397.84
2022-08-28T02:49:52.061Z,99385.56
2022-08-28T02:52:21.936Z,99391.31
2022-08-28T02:54:49.961Z,99392.13
2022-08-28T02:57:18.083Z,99399.50
2022-08-28T02:59:47.929Z,99394.28
2022-08-28T03:02:16.017Z,99398.38
2022-08-28T03:04:44.709Z,99405.50
2022-08-28T03:07:15.263Z,99402.22
2022-08-28T03:09:44.200Z,99401.56
2022-08-28T03:12:14.615Z,99403.31
2022-08-28T03:14:42.600Z,99402.69
2022-08-28T03:17:10.618Z,99417.00
2022-08-28T03:19:38.702Z,99413.56
2022-08-28T03:22:06.728Z,99419.41
2022-08-28T03:24:37.579Z,99420.34
2022-08-28T03:27:05.909Z,99418.28
2022-08-28T03:29:33.918Z,99422.69
2022-08-28T03:32:01.968Z,99420.94
2022-08-28T03:34:30.013Z,99425.72
2022-08-28T03:36:58.062Z,99426.19
2022-08-28T03:39:26.104Z,99425.41
2022-08-28T03:41:55.628Z,99420.75
2022-08-28T03:44:23.615Z,99414.81
2022-08-28T03:46:51.682Z,99417.13
2022-08-28T03:49:19.935Z,99419.13
2022-08-28T03:51:49.050Z,99421.09
2022-08-28T03:54:17.019Z,99414.59
2022-08-28T03:56:45.049Z,99419.81
2022-08-28T03:59:14.412Z,99421.72
2022-08-28T04:01:42.541Z,99421.09
2022-08-28T04:04:10.603Z,99429.91
2022-08-28T04:06:39.420Z,99430.13
2022-08-28T04:09:07.389Z,99427.63
2022-08-28T04:11:38.543Z,99429.28
2022-08-28T04:14:06.528Z,99428.91
2022-08-28T04:16:35.926Z,99434.53
2022-08-28T04:19:04.019Z,99432.22
2022-08-28T04:21:32.017Z,99430.47
2022-08-28T04:24:00.017Z,99442.16
2022-08-28T04:26:28.484Z,99441.28
2022-08-28T04:28:56.746Z,99438.84
2022-08-28T04:31:31.651Z,99443.81
2022-08-28T04:34:02.019Z,99440.69
2022-08-28T04:36:30.108Z,99437.41
2022-08-28T04:38:58.638Z,99438.53
2022-08-28T04:41:26.722Z,99449.00
2022-08-28T04:43:56.242Z,99451.84
2022-08-28T04:46:24.494Z,99454.84
2022-08-28T04:48:52.484Z,99460.00
2022-08-28T04:51:21.918Z,99455.63
2022-08-28T04:53:49.883Z,99461.16
2022-08-28T04:56:18.327Z,99459.50
2022-08-28T04:58:46.714Z,99449.66
2022-08-28T05:01:15.690Z,99456.22
2022-08-28T05:03:43.849Z,99452.91
2022-08-28T05:06:13.522Z,99455.66
2022-08-28T05:08:42.929Z,99462.00
2022-08-28T05:11:12.328Z,99452.94
2022-08-28T05:13:40.295Z,99463.38
2022-08-28T05:16:08.421Z,99467.22
2022-08-28T05:18:36.816Z,99465.56
2022-08-28T05:21:04.958Z,99465.56
2022-08-28T05:23:32.927Z,99465.03
2022-08-28T05:26:02.317Z,99470.53
2022-08-28T05:28:30.416Z,99472.72
2022-08-28T05:30:58.428Z,99475.41
2022-08-28T05:33:26.465Z,99479.22
2022-08-28T05:35:54.525Z,99480.00
2022-08-28T05:38:22.546Z,99475.28
2022-08-28T05:40:50.573Z,99478.53
2022-08-28T05:43:20.090Z,99470.72
2022-08-28T05:45:57.899Z,99481.69
2022-08-28T05:48:36.182Z,99484.22
2022-08-28T05:51:07.420Z,99478.66
2022-08-28T05:53:35.833Z,99481.94
2022-08-28T05:56:05.107Z,99478.50
2022-08-28T05:58:34.996Z,99477.84
2022-08-28T06:01:08.136Z,99479.91
2022-08-28T06:03:36.318Z,99481.38
2022-08-28T06:06:04.503Z,99491.50
2022-08-28T06:08:33.451Z,99482.56
2022-08-28T06:11:02.303Z,99485.97
2022-08-28T06:13:31.180Z,99484.34
2022-08-28T06:16:00.575Z,99489.06
2022-08-28T06:18:28.629Z,99492.63
2022-08-28T06:20:56.614Z,99493.19
2022-08-28T06:23:24.610Z,99503.47
2022-08-28T06:25:52.810Z,99498.97
2022-08-28T06:28:22.567Z,99504.75
2022-08-28T06:31:15.935Z,99501.59
2022-08-28T06:33:40.310Z,99507.53
2022-08-28T06:36:08.934Z,99501.06
2022-08-28T06:38:37.081Z,99507.47
2022-08-28T06:41:09.286Z,99511.41
2022-08-28T06:43:37.493Z,99507.16
2022-08-28T06:46:05.545Z,99516.72
2022-08-28T06:48:33.577Z,99508.25
2022-08-28T06:51:03.137Z,99513.75
2022-08-28T06:53:31.672Z,99505.44
2022-08-28T06:56:01.356Z,99506.88
2022-08-28T06:58:29.613Z,99504.47
2022-08-28T07:01:05.397Z,99506.69
2022-08-28T07:03:33.471Z,99513.50
2022-08-28T07:06:03.309Z,99516.16
2022-08-28T07:08:32.080Z,99513.28
2022-08-28T07:11:00.452Z,99510.91
2022-08-28T07:13:33.304Z,99506.84
2022-08-28T07:16:01.886Z,99504.78
2022-08-28T07:18:30.373Z,99508.56
2022-08-28T07:20:58.555Z,99510.91
2022-08-28T07:23:27.946Z,99506.75
2022-08-28T07:25:55.992Z,99508.03
2022-08-28T07:28:24.432Z,99513.50
2022-08-28T07:30:59.120Z,99509.94
2022-08-28T07:33:27.750Z,99508.63
2022-08-28T07:35:55.766Z,99507.47
2022-08-28T07:38:23.953Z,99502.25
2022-08-28T07:40:53.344Z,99503.41
2022-08-28T07:43:38.535Z,99499.19
2022-08-28T07:46:08.176Z,99499.19
2022-08-28T07:48:36.328Z,99498.72
2022-08-28T07:51:04.435Z,99494.34
2022-08-28T07:53:36.364Z,99504.97
2022-08-28T07:56:06.864Z,99497.63
2022-08-28T07:58:34.866Z,99503.66
2022-08-28T08:01:03.223Z,99491.38
2022-08-28T08:03:31.501Z,99493.47
2022-08-28T08:06:00.372Z,99495.25
2022-08-28T08:08:28.490Z,99493.97
2022-08-28T08:11:00.822Z,99491.38
2022-08-28T08:13:30.672Z,99494.44
2022-08-28T08:16:02.677Z,99496.50
2022-08-28T08:18:30.703Z,99494.53
2022-08-28T08:20:58.837Z,99495.19
2022-08-28T08:23:27.001Z,99488.34
2022-08-28T08:25:56.296Z,99495.34
2022-08-28T08:28:24.341Z,99481.88
2022-08-28T08:31:06.287Z,99490.31
2022-08-28T08:33:34.450Z,99487.78
2022-08-28T08:36:02.478Z,99486.16
2022-08-28T08:38:31.360Z,99489.69
2022-08-28T08:41:00.543Z,99485.91
2022-08-28T08:43:28.606Z,99489.88
2022-08-28T08:45:58.229Z,99485.94
2022-08-28T08:48:28.863Z,99491.13
2022-08-28T08:50:57.937Z,99472.00
2022-08-28T08:53:29.196Z,99486.25
2022-08-28T08:55:57.966Z,99483.94
2022-08-28T08:58:27.808Z,99480.09
2022-08-28T09:01:02.399Z,99466.22
2022-08-28T09:03:43.511Z,99484.81
2022-08-28T09:06:16.822Z,99474.50
2022-08-28T09:08:48.282Z,99469.38
2022-08-28T09:11:21.908Z,99471.50
2022-08-28T09:13:54.347Z,99472.34
2022-08-28T09:16:28.101Z,99463.19
2022-08-28T09:18:57.773Z,99471.13
2022-08-28T09:21:30.227Z,99468.81
2022-08-28T09:24:00.899Z,99474.16
2022-08-28T09:26:33.673Z,99474.59
2022-08-28T09:29:04.244Z,99470.34
2022-08-28T09:31:35.114Z,99470.13
2022-08-28T09:34:21.156Z,99469.84
2022-08-28T09:36:49.554Z,99472.91
2022-08-28T09:39:19.101Z,99464.75
2022-08-28T09:42:24.956Z,99475.44
2022-08-28T09:44:59.822Z,99471.50
2022-08-28T09:47:48.976Z,99464.72
2022-08-28T09:50:32.685Z,99475.28
2022-08-28T09:53:17.220Z,99474.78
2022-08-28T09:55:52.621Z,99475.53
2022-08-28T09:58:21.171Z,99477.44
2022-08-28T10:00:51.349Z,99465.56
2022-08-28T10:03:23.013Z,99472.69
2022-08-28T10:05:55.112Z,99453.97
2022-08-28T10:08:55.649Z,99472.13
2022-08-28T10:11:28.292Z,99472.28
2022-08-28T10:13:59.996Z,99461.72
2022-08-28T10:16:30.579Z,99453.13
2022-08-28T10:19:04.254Z,99457.03
2022-08-28T10:21:34.325Z,99445.75
2022-08-28T10:24:16.837Z,99455.94
2022-08-28T10:26:58.762Z,99456.41
2022-08-28T10:29:33.413Z,99454.16
2022-08-28T10:32:11.911Z,99445.81
2022-08-28T10:34:47.840Z,99453.91
2022-08-28T10:37:19.755Z,99451.47
2022-08-28T10:39:52.569Z,99455.50
2022-08-28T10:42:35.949Z,99449.47
2022-08-28T10:45:08.526Z,99449.78
2022-08-28T10:47:39.051Z,99440.88
2022-08-28T10:50:11.422Z,99447.09
2022-08-28T10:52:41.321Z,99449.06
2022-08-28T10:55:12.669Z,99442.50
2022-08-28T10:57:42.692Z,99445.03
2022-08-28T11:00:13.040Z,99435.75
2022-08-28T11:02:41.842Z,99433.81
2022-08-28T11:05:11.609Z,99432.75
2022-08-28T11:07:41.509Z,99434.00
2022-08-28T11:10:19.086Z,99428.91
2022-08-28T11:12:47.240Z,99426.78
2022-08-28T11:15:43.927Z,99428.72
2022-08-28T11:18:40.864Z,99434.41
2022-08-28T11:21:13.701Z,99421.69
2022-08-28T11:23:43.954Z,99431.47
2022-08-28T11:26:13.578Z,99427.22
2022-08-28T11:28:42.987Z,99428.28
2022-08-28T11:31:31.088Z,99431.72
2022-08-28T11:34:01.016Z,99416.91
2022-08-28T11:36:59.908Z,99424.69
2022-08-28T11:39:27.999Z,99427.75
2022-08-28T11:42:32.202Z,99411.56
2022-08-28T11:45:00.686Z,99421.16
2022-08-28T11:47:56.369Z,99425.84
2022-08-28T11:50:32.075Z,99412.13
2022-08-28T11:53:33.224Z,99416.91
2022-08-28T11:56:31.471Z,99412.06
2022-08-28T11:59:08.120Z,99409.31
2022-08-28T12:01:38.077Z,99409.56
2022-08-28T12:04:08.484Z,99415.72
2022-08-28T12:06:54.452Z,99404.09
2022-08-28T12:09:43.982Z,99406.94
2022-08-28T12:12:27.661Z,99413.88
2022-08-28T12:14:59.342Z,99418.94
2022-08-28T12:17:31.485Z,99406.91
2022-08-28T12:20:01.093Z,99408.81
2022-08-28T12:22:45.372Z,99410.47
2022-08-28T12:25:20.745Z,99406.06
2022-08-28T12:27:48.779Z,99410.84
2022-08-28T12:30:24.824Z,99399.78
2022-08-28T12:32:54.284Z,99410.16
2022-08-28T12:35:23.231Z,99398.19
2022-08-28T12:38:01.160Z,99412.13
2022-08-28T12:40:50.315Z,99401.47
2022-08-28T12:43:27.821Z,99392.78
2022-08-28T12:45:57.137Z,99404.31
2022-08-28T12:48:26.021Z,99386.91
2022-08-28T12:51:03.155Z,99384.53
2022-08-28T12:53:38.823Z,99382.28
2022-08-28T12:56:10.214Z,99384.56
2022-08-28T12:58:39.461Z,99377.63
2022-08-28T13:01:09.173Z,99381.72
2022-08-28T13:03:44.037Z,99372.34
2022-08-28T13:06:12.025Z,99368.47
2022-08-28T13:08:40.042Z,99376.38
2022-08-28T13:11:09.905Z,99366.22
2022-08-28T13:13:40.137Z,99361.59
2022-08-28T13:16:08.827Z,99358.69
2022-08-28T13:18:44.731Z,99355.53
2022-08-28T13:21:34.323Z,99354.22
2022-08-28T13:24:22.424Z,99348.81
2022-08-28T13:27:00.756Z,99353.16
2022-08-28T13:29:28.821Z,99355.16
2022-08-28T13:31:57.803Z,99342.84
2022-08-28T13:34:26.918Z,99343.53
2022-08-28T13:36:55.903Z,99337.75
2022-08-28T13:39:23.965Z,99338.50
2022-08-28T13:41:54.412Z,99341.66
2022-08-28T13:44:31.608Z,99337.16
2022-08-28T13:46:59.857Z,99333.53
2022-08-28T13:49:28.851Z,99336.09
2022-08-28T13:51:57.334Z,99333.94
2022-08-28T13:54:25.519Z,99328.13
2022-08-28T13:56:57.077Z,99330.72
2022-08-28T13:59:25.074Z,99316.09
2022-08-28T14:02:27.101Z,99320.38
2022-08-28T14:04:55.124Z,99323.06
2022-08-28T14:07:23.305Z,99312.13
2022-08-28T14:09:56.021Z,99312.28
2022-08-28T14:12:31.427Z,99314.31
2022-08-28T14:15:01.807Z,99307.69
2022-08-28T14:17:29.856Z,99313.16
2022-08-28T14:19:59.808Z,99306.56
2022-08-28T14:22:27.926Z,99308.06
2022-08-28T14:24:55.926Z,99311.00
2022-08-28T14:27:25.361Z,99307.66
2022-08-28T14:29:54.127Z,99316.28
2022-08-28T14:32:22.143Z,99311.41
2022-08-28T14:34:50.726Z,99311.66
2022-08-28T14:37:19.380Z,99305.84
2022-08-28T14:39:48.023Z,99309.81
2022-08-28T14:42:16.056Z,99308.16
2022-08-28T14:44:45.480Z,99306.75
2022-08-28T14:47:13.519Z,99299.75
2022-08-28T14:49:42.203Z,99304.91
2022-08-28T14:52:10.229Z,99296.97
2022-08-28T14:54:38.413Z,99301.63
2022-08-28T14:57:06.821Z,99298.00
2022-08-28T14:59:35.059Z,99292.78
2022-08-28T15:02:04.501Z,99294.66
2022-08-28T15:04:34.804Z,99293.69
2022-08-28T15:07:05.605Z,99290.00
2022-08-28T15:09:35.426Z,99300.34
2022-08-28T15:12:03.806Z,99302.66
2022-08-28T15:14:31.854Z,99307.19
2022-08-28T15:17:00.030Z,99302.28
2022-08-28T15:19:30.134Z,99297.59
2022-08-28T15:21:58.370Z,99296.44
2022-08-28T15:24:28.050Z,99297.09
2022-08-28T15:26:57.011Z,99297.69
2022-08-28T15:29:25.012Z,99293.47
2022-08-28T15:31:53.537Z,99293.22
2022-08-28T15:34:22.865Z,99284.03
2022-08-28T15:36:55.852Z,99289.03
2022-08-28T15:39:41.648Z,99291.09
2022-08-28T15:42:10.056Z,99283.88
2022-08-28T15:44:38.111Z,99287.00
2022-08-28T15:47:06.580Z,99285.66
2022-08-28T15:49:43.592Z,99279.13
2022-08-28T15:52:18.579Z,99287.56
2022-08-28T15:54:46.624Z,99282.66
2022-08-28T15:57:14.566Z,99287.16
2022-08-28T15:59:49.722Z,99285.59
2022-08-28T16:02:19.282Z,99285.47
2022-08-28T16:04:47.380Z,99285.34
2022-08-28T16:07:15.380Z,99281.13
2022-08-28T16:09:44.891Z,99296.72
2022-08-28T16:12:12.976Z,99280.75
2022-08-28T16:14:40.934Z,99286.25
2022-08-28T16:17:10.972Z,99282.19
2022-08-28T16:19:39.900Z,99282.88
2022-08-28T16:22:07.992Z,99286.88
2022-08-28T16:24:36.207Z,99282.19
2022-08-28T16:27:07.900Z,99291.38
2022-08-28T16:29:38.872Z,99287.97
2022-08-28T16:32:07.567Z,99285.53
2022-08-28T16:34:36.997Z,99296.63
2022-08-28T16:37:05.803Z,99293.03
2022-08-28T16:39:36.124Z,99291.72
2022-08-28T16:42:05.895Z,99291.47
2022-08-28T16:44:34.947Z,99297.63
2022-08-28T16:47:03.044Z,99300.97
2022-08-28T16:49:31.154Z,99299.41
2022-08-28T16:51:59.176Z,99318.19
2022-08-28T16:54:27.210Z,99312.34
2022-08-28T16:56:55.221Z,99301.75
2022-08-28T16:59:24.634Z,99311.88
2022-08-28T17:01:53.782Z,99308.44
2022-08-28T17:04:22.428Z,99324.56
2022-08-28T17:06:50.428Z,99320.16
2022-08-28T17:09:20.913Z,99319.38
2022-08-28T17:11:52.271Z,99315.28
2022-08-28T17:14:20.997Z,99305.41
2022-08-28T17:16:50.486Z,99328.63
2022-08-28T17:19:18.592Z,99327.28
2022-08-28T17:22:03.913Z,99329.25
2022-08-28T17:24:32.107Z,99341.38
2022-08-28T17:27:05.199Z,99342.66
2022-08-28T17:29:33.902Z,99348.94
2022-08-28T17:32:05.318Z,99348.28
2022-08-28T17:34:33.348Z,99347.34
2022-08-28T17:37:01.365Z,99347.94
2022-08-28T17:39:29.765Z,99361.00
2022-08-28T17:41:57.878Z,99356.44
2022-08-28T17:44:26.091Z,99361.81
2022-08-28T17:46:54.090Z,99362.75
2022-08-28T17:49:23.527Z,99361.22
2022-08-28T17:51:51.517Z,99361.06
2022-08-28T17:54:21.564Z,99373.00
2022-08-28T17:56:49.582Z,99377.44
2022-08-28T17:59:17.755Z,99381.38
2022-08-28T18:01:46.533Z,99385.06
2022-08-28T18:04:17.959Z,99389.28
2022-08-28T18:06:51.674Z,99381.63
2022-08-28T18:09:19.653Z,99381.97
2022-08-28T18:11:47.706Z,99382.59
2022-08-28T18:14:15.678Z,99381.81
2022-08-28T18:16:43.838Z,99383.53
2022-08-28T18:19:12.099Z,99369.84
2022-08-28T18:21:40.424Z,99384.72
2022-08-28T18:24:10.480Z,99388.59
2022-08-28T18:26:38.772Z,99382.03
2022-08-28T18:29:07.054Z,99384.81
2022-08-28T18:31:35.525Z,99386.84
2022-08-28T18:34:03.952Z,99399.19
2022-08-28T18:36:32.132Z,99406.38
2022-08-28T18:39:00.307Z,99403.09
2022-08-28T18:41:43.636Z,99400.88
2022-08-28T18:44:13.969Z,99408.38
2022-08-28T18:46:42.567Z,99413.59
2022-08-28T18:49:10.914Z,99407.03
2022-08-28T18:51:39.114Z,99415.31
2022-08-28T18:54:07.427Z,99423.56
2022-08-28T18:56:38.338Z,99418.06
2022-08-28T18:59:06.576Z,99420.81
2022-08-28T19:01:34.731Z,99424.16
2022-08-28T19:04:03.090Z,99422.53
2022-08-28T19:06:31.154Z,99420.88
2022-08-28T19:08:59.230Z,99427.47
2022-08-28T19:11:30.359Z,99427.78
2022-08-28T19:14:03.991Z,99428.06
2022-08-28T19:16:32.718Z,99428.09
2022-08-28T19:19:01.335Z,99427.81
2022-08-28T19:21:29.399Z,99429.75
2022-08-28T19:23:57.605Z,99436.38
2022-08-28T19:26:25.749Z,99437.50
2022-08-28T19:28:53.760Z,99446.84
2022-08-28T19:31:23.597Z,99440.56
2022-08-28T19:33:51.866Z,99441.38
2022-08-28T19:36:19.879Z,99435.31
2022-08-28T19:38:47.847Z,99441.91
2022-08-28T19:41:15.857Z,99446.03
2022-08-28T19:43:44.657Z,99443.56
2022-08-28T19:46:19.353Z,99441.09
2022-08-28T19:48:49.893Z,99451.25
2022-08-28T19:51:23.120Z,99446.88
2022-08-28T19:53:56.722Z,99449.34
2022-08-28T19:56:27.484Z,99449.06
2022-08-28T19:58:56.771Z,99452.41
2022-08-28T20:01:24.843Z,99447.44
2022-08-28T20:03:54.460Z,99451.03
2022-08-28T20:06:22.438Z,99450.19
2022-08-28T20:08:50.515Z,99455.69
2022-08-28T20:11:24.784Z,99457.34
2022-08-28T20:13:53.136Z,99462.81
2022-08-28T20:16:21.514Z,99464.44
2022-08-28T20:18:50.501Z,99465.56
2022-08-28T20:21:35.010Z,99471.59
2022-08-28T20:24:06.062Z,99465.00
2022-08-28T20:26:34.035Z,99474.59
2022-08-28T20:29:02.307Z,99468.81
2022-08-28T20:31:30.401Z,99478.72
2022-08-28T20:33:58.404Z,99474.31
2022-08-28T20:36:27.804Z,99480.34
2022-08-28T20:38:55.812Z,99478.13
2022-08-28T20:41:23.862Z,99478.13
2022-08-28T20:43:51.921Z,99482.50
2022-08-28T20:46:20.213Z,99486.34
2022-08-28T20:48:48.362Z,99487.97
2022-08-28T20:51:16.376Z,99495.69
2022-08-28T20:53:45.779Z,99495.69
2022-08-28T20:56:13.819Z,99500.63
2022-08-28T20:58:41.828Z,99497.06
2022-08-28T21:01:10.004Z,99506.19
2022-08-28T21:03:38.136Z,99504.53
2022-08-28T21:06:06.514Z,99501.50
2022-08-28T21:08:34.503Z,99496.31
2022-08-28T21:11:03.896Z,99498.00
2022-08-28T21:13:32.506Z,99501.84
2022-08-28T21:16:00.539Z,99499.34
2022-08-28T21:18:31.378Z,99498.53
2022-08-28T21:20:59.373Z,99494.97
2022-08-28T21:23:27.491Z,99500.19
2022-08-28T21:25:55.518Z,99498.28
2022-08-28T21:28:24.883Z,99493.59
2022-08-28T21:30:54.067Z,99495.78
2022-08-28T21:33:22.216Z,99494.66
2022-08-28T21:35:50.265Z,99497.94
2022-08-28T21:38:18.250Z,99501.53
2022-08-28T21:40:46.274Z,99506.72
2022-08-28T21:43:14.283Z,99516.28
2022-08-28T21:45:43.661Z,99511.59
2022-08-28T21:48:11.733Z,99511.06
2022-08-28T21:50:42.975Z,99516.25
2022-08-28T21:53:10.965Z,99506.66
2022-08-28T21:55:39.104Z,99516.53
2022-08-28T21:58:07.208Z,99508.81
2022-08-28T22:00:35.335Z,99504.72
2022-08-28T22:03:04.791Z,99497.81
2022-08-28T22:05:32.878Z,99504.41
2022-08-28T22:08:00.851Z,99510.41
2022-08-28T22:10:28.989Z,99507.13
2022-08-28T22:12:57.001Z,99503.25
2022-08-28T22:15:24.989Z,99504.34
2022-08-28T22:17:52.969Z,99499.69
2022-08-28T22:20:22.348Z,99500.47
2022-08-28T22:23:07.466Z,99491.94
2022-08-28T22:25:40.926Z,99494.38
2022-08-28T22:28:09.369Z,99492.41
2022-08-28T22:30:37.510Z,99498.44
2022-08-28T22:33:06.086Z,99506.38
2022-08-28T22:35:35.487Z,99498.72
2022-08-28T22:38:03.663Z,99505.56
2022-08-28T22:40:31.768Z,99505.56
2022-08-28T22:42:59.812Z,99511.88
2022-08-28T22:45:27.789Z,99506.38
2022-08-28T22:47:55.783Z,99503.59
2022-08-28T22:50:23.753Z,99512.34
2022-08-28T22:52:53.177Z,99511.50
2022-08-28T22:55:21.730Z,99521.59
2022-08-28T22:57:49.846Z,99510.88
2022-08-28T23:00:19.512Z,99512.72
2022-08-28T23:02:48.030Z,99505.56
2022-08-28T23:05:16.200Z,99508.88
2022-08-28T23:07:44.220Z,99513.53
2022-08-28T23:10:13.687Z,99515.13
2022-08-28T23:12:41.862Z,99518.16
2022-08-28T23:15:11.793Z,99520.34
2022-08-28T23:17:39.856Z,99519.19
2022-08-28T23:20:10.610Z,99507.66
2022-08-28T23:22:38.900Z,99499.94
2022-08-28T23:25:08.017Z,99510.94
2022-08-28T23:27:37.365Z,99513.13
2022-08-28T23:30:07.842Z,99515.28
2022-08-28T23:32:35.880Z,99512.53
2022-08-28T23:35:07.118Z,99522.34
2022-08-28T23:37:36.016Z,99517.38
2022-08-28T23:40:05.019Z,99521.44
2022-08-28T23:42:33.343Z,99523.63
2022-08-28T23:45:03.061Z,99524.69
2022-08-28T23:47:33.217Z,99514.47
2022-08-28T23:50:02.374Z,99524.66
2022-08-28T23:52:30.748Z,99531.47
2022-08-28T23:55:00.084Z,99532.56
2022-08-28T23:57:28.331Z,99531.22
2022-08-28T23:59:56.356Z,99534.22
